sensor_id;sensor_type;location;lat;lon;timestamp;pressure;altitude;pressure_sealevel;temperature;humidity
48718;BME280;34521;33.042;-96.586;2023-06-26T00:02:04;99056.76;;;24.83;29.73
48718;BME280;34521;33.042;-96.586;2023-06-26T00:04:29;99056.40;;;24.75;30.29
48718;BME280;34521;33.042;-96.586;2023-06-26T00:06:54;99056.80;;;24.87;29.84
48718;BME280;34521;33.042;-96.586;2023-06-26T00:09:19;99062.03;;;25.09;29.41
48718;BME280;34521;33.042;-96.586;2023-06-26T00:11:44;99063.95;;;24.10;30.11
48718;BME280;34521;33.042;-96.586;2023-06-26T00:14:09;99068.74;;;24.46;30.00
48718;BME280;34521;33.042;-96.586;2023-06-26T00:16:34;99071.50;;;24.70;29.55
48718;BME280;34521;33.042;-96.586;2023-06-26T00:18:59;99065.39;;;25.23;29.11
48718;BME280;34521;33.042;-96.586;2023-06-26T00:21:24;99066.21;;;24.57;30.26
48718;BME280;34521;33.042;-96.586;2023-06-26T00:23:49;99067.08;;;24.93;29.89
48718;BME280;34521;33.042;-96.586;2023-06-26T00:26:14;99062.95;;;25.01;30.06
48718;BME280;34521;33.042;-96.586;2023-06-26T00:28:39;99059.33;;;25.15;30.04
48718;BME280;34521;33.042;-96.586;2023-06-26T00:31:05;99065.18;;;24.36;30.31
48718;BME280;34521;33.042;-96.586;2023-06-26T00:33:30;99066.68;;;24.27;30.22
48718;BME280;34521;33.042;-96.586;2023-06-26T00:35:55;99064.83;;;24.53;29.71
48718;BME280;34521;33.042;-96.586;2023-06-26T00:38:20;99064.96;;;24.58;29.41
48718;BME280;34521;33.042;-96.586;2023-06-26T00:40:45;99065.53;;;24.95;30.16
48718;BME280;34521;33.042;-96.586;2023-06-26T00:43:10;99061.33;;;25.31;29.58
48718;BME280;34521;33.042;-96.586;2023-06-26T00:45:35;99056.16;;;25.26;29.75
48718;BME280;34521;33.042;-96.586;2023-06-26T00:48:02;99052.78;;;25.66;28.93
48718;BME280;34521;33.042;-96.586;2023-06-26T00:50:26;99057.50;;;24.91;29.57
48718;BME280;34521;33.042;-96.586;2023-06-26T00:52:52;99055.13;;;25.00;29.14
48718;BME280;34521;33.042;-96.586;2023-06-26T00:55:17;99058.09;;;24.31;29.81
48718;BME280;34521;33.042;-96.586;2023-06-26T00:57:42;99059.97;;;24.80;29.10
48718;BME280;34521;33.042;-96.586;2023-06-26T01:00:08;99062.59;;;24.78;30.11
48718;BME280;34521;33.042;-96.586;2023-06-26T01:02:32;99061.61;;;25.12;29.60
48718;BME280;34521;33.042;-96.586;2023-06-26T01:04:57;99057.92;;;24.70;30.38
48718;BME280;34521;33.042;-96.586;2023-06-26T01:07:23;99055.06;;;25.27;29.66
48718;BME280;34521;33.042;-96.586;2023-06-26T01:09:48;99056.65;;;25.67;28.97
48718;BME280;34521;33.042;-96.586;2023-06-26T01:12:13;99058.61;;;24.36;29.57
48718;BME280;34521;33.042;-96.586;2023-06-26T01:14:38;99064.25;;;24.57;29.42
48718;BME280;34521;33.042;-96.586;2023-06-26T01:17:04;99063.08;;;24.61;29.19
48718;BME280;34521;33.042;-96.586;2023-06-26T01:19:31;99061.65;;;24.30;29.36
48718;BME280;34521;33.042;-96.586;2023-06-26T01:21:58;99056.24;;;24.69;28.82
48718;BME280;34521;33.042;-96.586;2023-06-26T01:24:19;99055.32;;;24.25;29.92
48718;BME280;34521;33.042;-96.586;2023-06-26T01:26:44;99053.58;;;24.73;29.50
48718;BME280;34521;33.042;-96.586;2023-06-26T01:29:10;99053.98;;;25.55;29.08
48718;BME280;34521;33.042;-96.586;2023-06-26T01:31:34;99058.54;;;24.45;29.67
48718;BME280;34521;33.042;-96.586;2023-06-26T01:34:00;99059.75;;;24.58;29.30
48718;BME280;34521;33.042;-96.586;2023-06-26T01:36:24;99061.37;;;24.34;29.26
48718;BME280;34521;33.042;-96.586;2023-06-26T01:38:49;99060.48;;;24.85;28.85
48718;BME280;34521;33.042;-96.586;2023-06-26T01:41:14;99066.19;;;24.06;29.27
48718;BME280;34521;33.042;-96.586;2023-06-26T01:43:49;99062.93;;;24.03;29.93
48718;BME280;34521;33.042;-96.586;2023-06-26T01:46:08;99063.77;;;24.68;29.34
48718;BME280;34521;33.042;-96.586;2023-06-26T01:48:34;99061.12;;;24.76;29.31
48718;BME280;34521;33.042;-96.586;2023-06-26T01:50:54;99058.76;;;24.98;29.41
48718;BME280;34521;33.042;-96.586;2023-06-26T01:53:24;99058.58;;;24.37;29.46
48718;BME280;34521;33.042;-96.586;2023-06-26T01:55:49;99055.83;;;23.95;29.86
48718;BME280;34521;33.042;-96.586;2023-06-26T01:58:09;99059.03;;;23.65;29.69
48718;BME280;34521;33.042;-96.586;2023-06-26T02:00:35;99057.93;;;24.44;28.93
48718;BME280;34521;33.042;-96.586;2023-06-26T02:02:59;99057.76;;;23.95;29.29
48718;BME280;34521;33.042;-96.586;2023-06-26T02:05:25;99052.38;;;24.63;29.39
48718;BME280;34521;33.042;-96.586;2023-06-26T02:07:50;99056.35;;;24.61;29.36
48718;BME280;34521;33.042;-96.586;2023-06-26T02:10:15;99060.89;;;24.56;29.74
48718;BME280;34521;33.042;-96.586;2023-06-26T02:12:40;99064.88;;;24.79;29.16
48718;BME280;34521;33.042;-96.586;2023-06-26T02:15:06;99061.62;;;25.03;28.94
48718;BME280;34521;33.042;-96.586;2023-06-26T02:17:30;99061.50;;;24.01;29.35
48718;BME280;34521;33.042;-96.586;2023-06-26T02:19:55;99054.69;;;24.82;28.51
48718;BME280;34521;33.042;-96.586;2023-06-26T02:22:20;99059.56;;;24.23;28.69
48718;BME280;34521;33.042;-96.586;2023-06-26T02:24:45;99063.83;;;24.06;29.40
48718;BME280;34521;33.042;-96.586;2023-06-26T02:27:10;99060.51;;;24.87;28.92
48718;BME280;34521;33.042;-96.586;2023-06-26T02:29:35;99065.09;;;24.23;29.43
48718;BME280;34521;33.042;-96.586;2023-06-26T02:32:00;99066.37;;;25.08;28.66
48718;BME280;34521;33.042;-96.586;2023-06-26T02:34:25;99067.99;;;24.75;29.00
48718;BME280;34521;33.042;-96.586;2023-06-26T02:36:50;99067.71;;;24.25;29.26
48718;BME280;34521;33.042;-96.586;2023-06-26T02:39:15;99070.15;;;24.04;29.20
48718;BME280;34521;33.042;-96.586;2023-06-26T02:41:40;99072.35;;;23.59;29.22
48718;BME280;34521;33.042;-96.586;2023-06-26T02:44:05;99079.87;;;24.27;29.66
48718;BME280;34521;33.042;-96.586;2023-06-26T02:46:30;99084.42;;;24.01;29.36
48718;BME280;34521;33.042;-96.586;2023-06-26T02:48:55;99086.02;;;24.48;29.25
48718;BME280;34521;33.042;-96.586;2023-06-26T02:51:21;99089.79;;;24.70;29.27
48718;BME280;34521;33.042;-96.586;2023-06-26T02:53:46;99093.40;;;24.20;29.12
48718;BME280;34521;33.042;-96.586;2023-06-26T02:56:11;99096.86;;;24.04;29.07
48718;BME280;34521;33.042;-96.586;2023-06-26T02:58:36;99096.44;;;24.47;28.51
48718;BME280;34521;33.042;-96.586;2023-06-26T03:01:01;99095.46;;;23.77;28.86
48718;BME280;34521;33.042;-96.586;2023-06-26T03:03:26;99101.40;;;24.63;29.01
48718;BME280;34521;33.042;-96.586;2023-06-26T03:05:51;99106.42;;;23.76;29.87
48718;BME280;34521;33.042;-96.586;2023-06-26T03:08:16;99116.47;;;24.63;28.81
48718;BME280;34521;33.042;-96.586;2023-06-26T03:10:41;99124.97;;;25.24;28.87
48718;BME280;34521;33.042;-96.586;2023-06-26T03:13:06;99129.38;;;24.80;28.81
48718;BME280;34521;33.042;-96.586;2023-06-26T03:15:31;99128.55;;;24.36;28.81
48718;BME280;34521;33.042;-96.586;2023-06-26T03:17:56;99127.82;;;24.24;28.82
48718;BME280;34521;33.042;-96.586;2023-06-26T03:20:21;99130.17;;;24.87;28.19
48718;BME280;34521;33.042;-96.586;2023-06-26T03:22:46;99131.50;;;24.60;28.64
48718;BME280;34521;33.042;-96.586;2023-06-26T03:25:11;99137.73;;;24.68;28.89
48718;BME280;34521;33.042;-96.586;2023-06-26T03:27:36;99140.45;;;24.61;28.82
48718;BME280;34521;33.042;-96.586;2023-06-26T03:30:01;99144.64;;;24.98;28.81
48718;BME280;34521;33.042;-96.586;2023-06-26T03:32:26;99149.23;;;24.83;28.62
48718;BME280;34521;33.042;-96.586;2023-06-26T03:34:51;99146.18;;;24.43;28.69
48718;BME280;34521;33.042;-96.586;2023-06-26T03:37:17;99148.63;;;24.32;28.50
48718;BME280;34521;33.042;-96.586;2023-06-26T03:39:42;99145.46;;;23.57;29.34
48718;BME280;34521;33.042;-96.586;2023-06-26T03:42:07;99148.29;;;24.45;28.60
48718;BME280;34521;33.042;-96.586;2023-06-26T03:44:32;99146.58;;;24.04;29.40
48718;BME280;34521;33.042;-96.586;2023-06-26T03:46:57;99150.04;;;24.71;28.55
48718;BME280;34521;33.042;-96.586;2023-06-26T03:49:22;99147.76;;;25.08;28.57
48718;BME280;34521;33.042;-96.586;2023-06-26T03:51:47;99143.11;;;24.72;28.51
48718;BME280;34521;33.042;-96.586;2023-06-26T03:54:12;99141.87;;;23.82;29.13
48718;BME280;34521;33.042;-96.586;2023-06-26T03:56:37;99140.67;;;23.54;29.17
48718;BME280;34521;33.042;-96.586;2023-06-26T03:59:02;99144.03;;;23.81;30.02
48718;BME280;34521;33.042;-96.586;2023-06-26T04:01:27;99148.31;;;24.27;29.00
48718;BME280;34521;33.042;-96.586;2023-06-26T04:03:52;99152.50;;;23.80;29.55
48718;BME280;34521;33.042;-96.586;2023-06-26T04:06:17;99154.91;;;24.02;29.53
48718;BME280;34521;33.042;-96.586;2023-06-26T04:08:42;99158.44;;;24.83;28.88
48718;BME280;34521;33.042;-96.586;2023-06-26T04:11:07;99162.29;;;24.65;28.70
48718;BME280;34521;33.042;-96.586;2023-06-26T04:13:32;99164.82;;;24.18;28.68
48718;BME280;34521;33.042;-96.586;2023-06-26T04:15:57;99171.98;;;24.26;28.77
48718;BME280;34521;33.042;-96.586;2023-06-26T04:18:22;99182.99;;;23.73;29.83
48718;BME280;34521;33.042;-96.586;2023-06-26T04:23:12;99196.14;;;23.38;29.65
48718;BME280;34521;33.042;-96.586;2023-06-26T04:25:37;99197.19;;;24.60;28.67
48718;BME280;34521;33.042;-96.586;2023-06-26T04:28:02;99197.11;;;24.23;29.53
48718;BME280;34521;33.042;-96.586;2023-06-26T04:30:27;99192.76;;;24.33;28.83
48718;BME280;34521;33.042;-96.586;2023-06-26T04:32:52;99188.33;;;23.74;29.15
48718;BME280;34521;33.042;-96.586;2023-06-26T04:35:18;99186.41;;;24.09;28.77
48718;BME280;34521;33.042;-96.586;2023-06-26T04:37:42;99188.16;;;23.56;29.50
48718;BME280;34521;33.042;-96.586;2023-06-26T04:40:09;99185.50;;;24.20;28.86
48718;BME280;34521;33.042;-96.586;2023-06-26T04:42:33;99182.80;;;24.34;29.05
48718;BME280;34521;33.042;-96.586;2023-06-26T04:44:58;99180.29;;;24.24;29.23
48718;BME280;34521;33.042;-96.586;2023-06-26T04:47:23;99176.19;;;24.90;28.56
48718;BME280;34521;33.042;-96.586;2023-06-26T04:49:48;99173.77;;;24.27;28.72
48718;BME280;34521;33.042;-96.586;2023-06-26T04:52:13;99173.17;;;23.93;29.01
48718;BME280;34521;33.042;-96.586;2023-06-26T04:54:38;99173.18;;;23.84;28.77
48718;BME280;34521;33.042;-96.586;2023-06-26T04:57:03;99178.15;;;24.05;28.99
48718;BME280;34521;33.042;-96.586;2023-06-26T04:59:28;99180.01;;;23.79;29.69
48718;BME280;34521;33.042;-96.586;2023-06-26T05:01:53;99180.25;;;24.08;29.26
48718;BME280;34521;33.042;-96.586;2023-06-26T05:04:18;99183.75;;;24.55;28.58
48718;BME280;34521;33.042;-96.586;2023-06-26T05:06:43;99187.44;;;24.99;28.74
48718;BME280;34521;33.042;-96.586;2023-06-26T05:09:08;99186.24;;;24.35;28.84
48718;BME280;34521;33.042;-96.586;2023-06-26T05:11:33;99187.39;;;23.72;29.33
48718;BME280;34521;33.042;-96.586;2023-06-26T05:13:58;99182.67;;;24.43;28.47
48718;BME280;34521;33.042;-96.586;2023-06-26T05:16:23;99183.36;;;24.53;28.60
48718;BME280;34521;33.042;-96.586;2023-06-26T05:18:48;99184.36;;;24.65;28.80
48718;BME280;34521;33.042;-96.586;2023-06-26T05:21:14;99185.34;;;24.62;28.70
48718;BME280;34521;33.042;-96.586;2023-06-26T05:23:38;99185.97;;;24.60;28.53
48718;BME280;34521;33.042;-96.586;2023-06-26T05:26:04;99186.19;;;25.33;28.57
48718;BME280;34521;33.042;-96.586;2023-06-26T05:28:29;99186.80;;;25.02;28.22
48718;BME280;34521;33.042;-96.586;2023-06-26T05:30:54;99187.19;;;23.37;29.70
48718;BME280;34521;33.042;-96.586;2023-06-26T05:33:19;99183.43;;;24.15;28.54
48718;BME280;34521;33.042;-96.586;2023-06-26T05:35:45;99189.02;;;23.78;29.48
48718;BME280;34521;33.042;-96.586;2023-06-26T05:38:09;99193.28;;;23.69;29.83
48718;BME280;34521;33.042;-96.586;2023-06-26T05:40:34;99194.45;;;24.34;29.20
48718;BME280;34521;33.042;-96.586;2023-06-26T05:42:59;99197.90;;;24.32;28.83
48718;BME280;34521;33.042;-96.586;2023-06-26T05:45:23;99195.78;;;24.68;29.01
48718;BME280;34521;33.042;-96.586;2023-06-26T05:47:49;99193.72;;;24.69;28.56
48718;BME280;34521;33.042;-96.586;2023-06-26T05:50:16;99194.17;;;24.00;29.01
48718;BME280;34521;33.042;-96.586;2023-06-26T05:52:39;99189.74;;;23.22;29.65
48718;BME280;34521;33.042;-96.586;2023-06-26T05:55:05;99188.07;;;23.63;29.50
48718;BME280;34521;33.042;-96.586;2023-06-26T05:57:30;99186.15;;;24.26;29.14
48718;BME280;34521;33.042;-96.586;2023-06-26T05:59:54;99185.19;;;24.54;28.90
48718;BME280;34521;33.042;-96.586;2023-06-26T06:02:19;99187.39;;;24.65;28.66
48718;BME280;34521;33.042;-96.586;2023-06-26T06:04:44;99184.12;;;23.83;29.74
48718;BME280;34521;33.042;-96.586;2023-06-26T06:07:09;99186.32;;;24.14;29.13
48718;BME280;34521;33.042;-96.586;2023-06-26T06:09:34;99186.18;;;24.23;28.74
48718;BME280;34521;33.042;-96.586;2023-06-26T06:11:59;99191.32;;;23.82;28.82
48718;BME280;34521;33.042;-96.586;2023-06-26T06:14:24;99187.07;;;24.07;29.26
48718;BME280;34521;33.042;-96.586;2023-06-26T06:16:49;99182.42;;;23.63;29.54
48718;BME280;34521;33.042;-96.586;2023-06-26T06:19:14;99179.03;;;24.32;29.20
48718;BME280;34521;33.042;-96.586;2023-06-26T06:21:39;99177.73;;;24.58;29.04
48718;BME280;34521;33.042;-96.586;2023-06-26T06:24:05;99179.10;;;24.86;28.57
48718;BME280;34521;33.042;-96.586;2023-06-26T06:26:29;99177.07;;;24.83;28.74
48718;BME280;34521;33.042;-96.586;2023-06-26T06:28:54;99181.20;;;24.21;29.24
48718;BME280;34521;33.042;-96.586;2023-06-26T06:31:19;99185.23;;;22.97;29.94
48718;BME280;34521;33.042;-96.586;2023-06-26T06:33:44;99183.11;;;23.23;29.85
48718;BME280;34521;33.042;-96.586;2023-06-26T06:36:09;99181.35;;;24.02;29.44
48718;BME280;34521;33.042;-96.586;2023-06-26T06:38:34;99178.62;;;24.11;29.39
48718;BME280;34521;33.042;-96.586;2023-06-26T06:41:00;99180.36;;;24.15;29.15
48718;BME280;34521;33.042;-96.586;2023-06-26T06:43:25;99179.98;;;24.84;28.24
48718;BME280;34521;33.042;-96.586;2023-06-26T06:45:50;99180.59;;;24.50;28.68
48718;BME280;34521;33.042;-96.586;2023-06-26T06:48:14;99177.88;;;24.38;28.83
48718;BME280;34521;33.042;-96.586;2023-06-26T06:50:40;99177.08;;;23.98;29.13
48718;BME280;34521;33.042;-96.586;2023-06-26T06:53:05;99176.69;;;24.16;28.43
48718;BME280;34521;33.042;-96.586;2023-06-26T06:55:30;99176.22;;;24.12;28.75
48718;BME280;34521;33.042;-96.586;2023-06-26T06:57:55;99171.32;;;24.33;28.81
48718;BME280;34521;33.042;-96.586;2023-06-26T07:00:20;99167.42;;;23.36;30.05
48718;BME280;34521;33.042;-96.586;2023-06-26T07:02:46;99167.77;;;24.43;28.93
48718;BME280;34521;33.042;-96.586;2023-06-26T07:05:10;99168.19;;;24.48;28.66
48718;BME280;34521;33.042;-96.586;2023-06-26T07:07:36;99172.65;;;24.90;28.36
48718;BME280;34521;33.042;-96.586;2023-06-26T07:10:01;99168.50;;;24.49;28.88
48718;BME280;34521;33.042;-96.586;2023-06-26T07:12:25;99167.49;;;24.47;28.54
48718;BME280;34521;33.042;-96.586;2023-06-26T07:14:50;99169.47;;;23.44;29.22
48718;BME280;34521;33.042;-96.586;2023-06-26T07:17:15;99162.34;;;23.96;29.35
48718;BME280;34521;33.042;-96.586;2023-06-26T07:19:40;99159.13;;;23.70;29.42
48718;BME280;34521;33.042;-96.586;2023-06-26T07:22:05;99163.75;;;24.47;29.00
48718;BME280;34521;33.042;-96.586;2023-06-26T07:24:30;99160.50;;;23.74;29.60
48718;BME280;34521;33.042;-96.586;2023-06-26T07:26:55;99159.44;;;24.41;28.92
48718;BME280;34521;33.042;-96.586;2023-06-26T07:29:20;99162.98;;;24.24;29.13
48718;BME280;34521;33.042;-96.586;2023-06-26T07:31:45;99165.05;;;24.95;28.21
48718;BME280;34521;33.042;-96.586;2023-06-26T07:34:10;99166.00;;;23.30;29.47
48718;BME280;34521;33.042;-96.586;2023-06-26T07:36:35;99164.12;;;23.34;29.47
48718;BME280;34521;33.042;-96.586;2023-06-26T07:39:00;99162.71;;;23.75;29.17
48718;BME280;34521;33.042;-96.586;2023-06-26T07:41:26;99159.87;;;24.38;28.84
48718;BME280;34521;33.042;-96.586;2023-06-26T07:43:51;99162.49;;;24.06;29.29
48718;BME280;34521;33.042;-96.586;2023-06-26T07:46:15;99169.03;;;24.73;28.42
48718;BME280;34521;33.042;-96.586;2023-06-26T07:48:41;99169.17;;;24.59;28.60
48718;BME280;34521;33.042;-96.586;2023-06-26T07:51:06;99168.69;;;24.62;28.91
48718;BME280;34521;33.042;-96.586;2023-06-26T07:53:31;99169.39;;;24.68;28.28
48718;BME280;34521;33.042;-96.586;2023-06-26T07:55:56;99165.54;;;24.45;28.16
48718;BME280;34521;33.042;-96.586;2023-06-26T07:58:21;99163.20;;;24.71;28.08
48718;BME280;34521;33.042;-96.586;2023-06-26T08:00:46;99164.58;;;24.18;28.60
48718;BME280;34521;33.042;-96.586;2023-06-26T08:03:11;99166.66;;;24.03;29.23
48718;BME280;34521;33.042;-96.586;2023-06-26T08:05:36;99164.15;;;24.23;29.08
48718;BME280;34521;33.042;-96.586;2023-06-26T08:08:01;99161.78;;;24.17;29.00
48718;BME280;34521;33.042;-96.586;2023-06-26T08:10:26;99166.73;;;24.74;28.43
48718;BME280;34521;33.042;-96.586;2023-06-26T08:12:51;99166.33;;;24.49;28.80
48718;BME280;34521;33.042;-96.586;2023-06-26T08:15:16;99171.19;;;24.45;28.59
48718;BME280;34521;33.042;-96.586;2023-06-26T08:17:41;99174.59;;;23.51;28.95
48718;BME280;34521;33.042;-96.586;2023-06-26T08:20:07;99174.44;;;24.33;28.48
48718;BME280;34521;33.042;-96.586;2023-06-26T08:22:31;99172.72;;;24.05;29.09
48718;BME280;34521;33.042;-96.586;2023-06-26T08:24:57;99176.06;;;23.97;29.39
48718;BME280;34521;33.042;-96.586;2023-06-26T08:27:21;99174.32;;;24.07;29.31
48718;BME280;34521;33.042;-96.586;2023-06-26T08:29:46;99170.35;;;24.37;28.84
48718;BME280;34521;33.042;-96.586;2023-06-26T08:32:12;99174.43;;;24.52;28.71
48718;BME280;34521;33.042;-96.586;2023-06-26T08:34:37;99175.98;;;24.07;29.51
48718;BME280;34521;33.042;-96.586;2023-06-26T08:37:01;99176.60;;;24.23;28.79
48718;BME280;34521;33.042;-96.586;2023-06-26T08:39:27;99180.56;;;23.69;28.89
48718;BME280;34521;33.042;-96.586;2023-06-26T08:41:52;99184.39;;;23.69;29.31
48718;BME280;34521;33.042;-96.586;2023-06-26T08:44:17;99184.51;;;24.03;29.11
48718;BME280;34521;33.042;-96.586;2023-06-26T08:46:42;99185.40;;;23.69;29.32
48718;BME280;34521;33.042;-96.586;2023-06-26T08:49:14;99188.98;;;24.08;28.72
48718;BME280;34521;33.042;-96.586;2023-06-26T08:51:34;99191.02;;;24.65;28.47
48718;BME280;34521;33.042;-96.586;2023-06-26T08:53:58;99190.03;;;25.06;28.32
48718;BME280;34521;33.042;-96.586;2023-06-26T08:56:23;99191.26;;;24.55;28.88
48718;BME280;34521;33.042;-96.586;2023-06-26T08:58:47;99189.29;;;24.49;28.40
48718;BME280;34521;33.042;-96.586;2023-06-26T09:01:13;99189.88;;;24.47;28.07
48718;BME280;34521;33.042;-96.586;2023-06-26T09:03:37;99190.88;;;24.41;28.87
48718;BME280;34521;33.042;-96.586;2023-06-26T09:06:02;99187.86;;;24.12;28.98
48718;BME280;34521;33.042;-96.586;2023-06-26T09:08:27;99186.30;;;23.99;28.98
48718;BME280;34521;33.042;-96.586;2023-06-26T09:10:53;99183.25;;;24.29;29.02
48718;BME280;34521;33.042;-96.586;2023-06-26T09:13:18;99183.94;;;24.57;28.79
48718;BME280;34521;33.042;-96.586;2023-06-26T09:15:44;99179.64;;;24.73;28.44
48718;BME280;34521;33.042;-96.586;2023-06-26T09:18:07;99178.16;;;24.39;29.05
48718;BME280;34521;33.042;-96.586;2023-06-26T09:20:32;99177.88;;;24.51;28.48
48718;BME280;34521;33.042;-96.586;2023-06-26T09:22:57;99182.14;;;23.81;28.77
48718;BME280;34521;33.042;-96.586;2023-06-26T09:25:23;99181.15;;;23.06;29.97
48718;BME280;34521;33.042;-96.586;2023-06-26T09:27:48;99183.19;;;24.25;28.92
48718;BME280;34521;33.042;-96.586;2023-06-26T09:30:17;99184.71;;;23.44;29.91
48718;BME280;34521;33.042;-96.586;2023-06-26T09:32:38;99182.58;;;23.76;29.07
48718;BME280;34521;33.042;-96.586;2023-06-26T09:35:03;99184.52;;;24.87;28.46
48718;BME280;34521;33.042;-96.586;2023-06-26T09:37:28;99182.44;;;24.71;28.68
48718;BME280;34521;33.042;-96.586;2023-06-26T09:39:53;99180.56;;;24.41;28.87
48718;BME280;34521;33.042;-96.586;2023-06-26T09:42:19;99184.59;;;24.31;28.71
48718;BME280;34521;33.042;-96.586;2023-06-26T09:44:44;99179.37;;;24.15;28.22
48718;BME280;34521;33.042;-96.586;2023-06-26T09:47:08;99184.06;;;23.94;28.64
48718;BME280;34521;33.042;-96.586;2023-06-26T09:49:33;99187.35;;;23.22;29.83
48718;BME280;34521;33.042;-96.586;2023-06-26T09:52:01;99188.72;;;23.79;29.35
48718;BME280;34521;33.042;-96.586;2023-06-26T09:54:24;99186.73;;;24.24;28.97
48718;BME280;34521;33.042;-96.586;2023-06-26T09:56:48;99186.83;;;24.39;28.64
48718;BME280;34521;33.042;-96.586;2023-06-26T09:59:13;99186.17;;;24.20;28.63
48718;BME280;34521;33.042;-96.586;2023-06-26T10:01:41;99186.81;;;24.49;29.43
48718;BME280;34521;33.042;-96.586;2023-06-26T10:04:03;99188.37;;;24.40;28.70
48718;BME280;34521;33.042;-96.586;2023-06-26T10:06:31;99189.38;;;23.86;28.89
48718;BME280;34521;33.042;-96.586;2023-06-26T10:08:54;99192.31;;;22.82;29.85
48718;BME280;34521;33.042;-96.586;2023-06-26T10:11:21;99188.54;;;23.96;29.34
48718;BME280;34521;33.042;-96.586;2023-06-26T10:13:47;99187.70;;;23.98;29.17
48718;BME280;34521;33.042;-96.586;2023-06-26T10:16:09;99187.15;;;23.31;29.72
48718;BME280;34521;33.042;-96.586;2023-06-26T10:18:35;99189.98;;;24.39;28.91
48718;BME280;34521;33.042;-96.586;2023-06-26T10:20:59;99184.91;;;24.33;29.02
48718;BME280;34521;33.042;-96.586;2023-06-26T10:23:25;99185.92;;;24.89;28.48
48718;BME280;34521;33.042;-96.586;2023-06-26T10:25:51;99191.90;;;24.92;28.39
48718;BME280;34521;33.042;-96.586;2023-06-26T10:28:15;99198.07;;;24.52;28.24
48718;BME280;34521;33.042;-96.586;2023-06-26T10:30:40;99203.05;;;23.28;29.05
48718;BME280;34521;33.042;-96.586;2023-06-26T10:33:05;99209.71;;;24.02;29.03
48718;BME280;34521;33.042;-96.586;2023-06-26T10:35:30;99213.84;;;24.17;28.73
48718;BME280;34521;33.042;-96.586;2023-06-26T10:38:01;99220.28;;;23.44;29.65
48718;BME280;34521;33.042;-96.586;2023-06-26T10:40:25;99219.29;;;24.77;28.48
48718;BME280;34521;33.042;-96.586;2023-06-26T10:42:44;99223.55;;;24.56;28.76
48718;BME280;34521;33.042;-96.586;2023-06-26T10:45:14;99227.90;;;24.73;28.40
48718;BME280;34521;33.042;-96.586;2023-06-26T10:47:34;99233.57;;;23.83;29.31
48718;BME280;34521;33.042;-96.586;2023-06-26T10:52:27;99230.49;;;23.34;28.89
48718;BME280;34521;33.042;-96.586;2023-06-26T10:54:50;99229.61;;;23.29;29.79
48718;BME280;34521;33.042;-96.586;2023-06-26T10:57:23;99232.45;;;23.14;29.94
48718;BME280;34521;33.042;-96.586;2023-06-26T10:59:40;99239.96;;;23.77;29.45
48718;BME280;34521;33.042;-96.586;2023-06-26T11:02:05;99241.55;;;23.25;30.08
48718;BME280;34521;33.042;-96.586;2023-06-26T11:04:39;99237.49;;;24.54;28.86
48718;BME280;34521;33.042;-96.586;2023-06-26T11:09:24;99238.27;;;24.30;29.18
48718;BME280;34521;33.042;-96.586;2023-06-26T11:11:56;99242.02;;;24.40;28.56
48718;BME280;34521;33.042;-96.586;2023-06-26T11:14:10;99254.04;;;23.60;28.75
48718;BME280;34521;33.042;-96.586;2023-06-26T11:16:34;99257.88;;;23.98;29.25
48718;BME280;34521;33.042;-96.586;2023-06-26T11:18:59;99258.60;;;24.09;29.07
48718;BME280;34521;33.042;-96.586;2023-06-26T11:21:25;99260.74;;;23.51;29.87
48718;BME280;34521;33.042;-96.586;2023-06-26T11:23:50;99259.64;;;24.20;29.22
48718;BME280;34521;33.042;-96.586;2023-06-26T11:26:17;99258.77;;;24.06;29.15
48718;BME280;34521;33.042;-96.586;2023-06-26T11:28:47;99254.23;;;24.40;28.63
48718;BME280;34521;33.042;-96.586;2023-06-26T11:31:05;99257.19;;;23.94;29.22
48718;BME280;34521;33.042;-96.586;2023-06-26T11:33:30;99254.36;;;24.35;28.33
48718;BME280;34521;33.042;-96.586;2023-06-26T11:35:55;99260.35;;;23.04;29.23
48718;BME280;34521;33.042;-96.586;2023-06-26T11:38:20;99261.67;;;23.80;30.02
48718;BME280;34521;33.042;-96.586;2023-06-26T11:40:45;99267.72;;;23.67;29.28
48718;BME280;34521;33.042;-96.586;2023-06-26T11:43:11;99269.11;;;24.00;29.09
48718;BME280;34521;33.042;-96.586;2023-06-26T11:45:35;99271.03;;;23.72;29.25
48718;BME280;34521;33.042;-96.586;2023-06-26T11:48:01;99276.32;;;24.15;28.90
48718;BME280;34521;33.042;-96.586;2023-06-26T11:50:25;99277.89;;;25.07;28.29
48718;BME280;34521;33.042;-96.586;2023-06-26T11:52:54;99280.39;;;24.37;29.21
48718;BME280;34521;33.042;-96.586;2023-06-26T11:55:16;99285.14;;;24.50;28.54
48718;BME280;34521;33.042;-96.586;2023-06-26T11:57:40;99288.18;;;23.22;29.89
48718;BME280;34521;33.042;-96.586;2023-06-26T12:00:13;99290.01;;;23.48;29.30
48718;BME280;34521;33.042;-96.586;2023-06-26T12:02:30;99296.05;;;23.71;29.44
48718;BME280;34521;33.042;-96.586;2023-06-26T12:04:56;99295.86;;;23.98;29.29
48718;BME280;34521;33.042;-96.586;2023-06-26T12:07:21;99294.05;;;24.39;28.93
48718;BME280;34521;33.042;-96.586;2023-06-26T12:09:47;99292.55;;;24.32;29.04
48718;BME280;34521;33.042;-96.586;2023-06-26T12:12:11;99292.89;;;24.33;28.85
48718;BME280;34521;33.042;-96.586;2023-06-26T12:14:36;99289.71;;;24.04;29.00
48718;BME280;34521;33.042;-96.586;2023-06-26T12:17:11;99285.52;;;23.93;29.35
48718;BME280;34521;33.042;-96.586;2023-06-26T12:19:26;99285.84;;;23.69;29.35
48718;BME280;34521;33.042;-96.586;2023-06-26T12:21:51;99283.63;;;23.10;29.42
48718;BME280;34521;33.042;-96.586;2023-06-26T12:24:18;99281.45;;;23.17;30.06
48718;BME280;34521;33.042;-96.586;2023-06-26T12:26:43;99284.66;;;23.49;29.85
48718;BME280;34521;33.042;-96.586;2023-06-26T12:29:07;99288.89;;;23.07;30.44
48718;BME280;34521;33.042;-96.586;2023-06-26T12:31:32;99293.36;;;24.12;29.38
48718;BME280;34521;33.042;-96.586;2023-06-26T12:33:56;99298.02;;;24.58;28.95
48718;BME280;34521;33.042;-96.586;2023-06-26T12:36:21;99305.39;;;24.94;28.67